Time,TemperatureF,DewpointF,PressureIn,WindDirection,WindDirectionDegrees,WindSpeedMPH,WindSpeedGustMPH,Humidity,HourlyPrecipIn,Conditions,Clouds,dailyrainin,SoftwareType,DateUTC
2013-01-18 00:00:00,32.2,31.6,30.18,North,-999,0.0,0.0,98,0.00,,,-99.99,FreeWX-Wi 1.01,2013-01-18 08:00:00,
2013-01-18 00:05:00,32.2,31.6,30.18,North,-999,0.0,0.0,98,0.00,,,-99.99,FreeWX-Wi 1.01,2013-01-18 08:05:00,
2013-01-18 00:10:00,32.0,31.5,30.18,North,-999,0.0,0.0,98,0.00,,,-99.99,FreeWX-Wi 1.01,2013-01-18 08:10:00,
2013-01-18 00:15:00,31.6,31.1,30.18,North,-999,0.0,0.0,98,0.00,,,-99.99,FreeWX-Wi 1.01,2013-01-18 08:15:00,
2013-01-18 00:20:00,31.6,31.1,30.18,North,-999,0.0,0.0,98,0.00,,,-99.99,FreeWX-Wi 1.01,2013-01-18 08:20:00,
2013-01-18 00:25:00,31.8,31.3,30.18,North,-999,0.0,0.0,98,0.00,,,-99.99,FreeWX-Wi 1.01,2013-01-18 08:25:00,
2013-01-18 00:30:00,31.6,31.1,30.18,North,-999,0.0,0.0,98,0.00,,,-99.99,FreeWX-Wi 1.01,2013-01-18 08:30:00,
2013-01-18 00:35:00,31.5,30.9,30.18,North,-999,0.0,0.0,98,0.00,,,-99.99,FreeWX-Wi 1.01,2013-01-18 08:35:00,
2013-01-18 00:40:00,31.5,30.9,30.18,North,-999,0.0,0.0,98,0.00,,,-99.99,FreeWX-Wi 1.01,2013-01-18 08:40:00,
2013-01-18 00:45:00,31.3,30.7,30.18,North,-999,0.0,0.0,98,0.00,,,-99.99,FreeWX-Wi 1.01,2013-01-18 08:45:00,
2013-01-18 00:50:00,31.3,30.7,30.18,North,-999,0.0,0.0,98,0.00,,,-99.99,FreeWX-Wi 1.01,2013-01-18 08:50:00,
2013-01-18 00:55:00,31.3,30.7,30.18,North,-999,0.0,0.0,98,0.00,,,-99.99,FreeWX-Wi 1.01,2013-01-18 08:55:00,
2013-01-18 01:00:00,31.1,30.6,30.18,North,-999,0.0,0.0,98,0.00,,,-99.99,FreeWX-Wi 1.01,2013-01-18 09:00:00,
2013-01-18 01:05:00,31.1,30.6,30.18,North,-999,0.0,0.0,98,0.00,,,-99.99,FreeWX-Wi 1.01,2013-01-18 09:05:00,
2013-01-18 01:10:00,30.9,30.4,30.18,North,-999,0.0,0.0,98,0.00,,,-99.99,FreeWX-Wi 1.01,2013-01-18 09:10:00,
2013-01-18 01:15:00,30.9,30.4,30.18,North,-999,0.0,0.0,98,0.00,,,-99.99,FreeWX-Wi 1.01,2013-01-18 09:15:00,
2013-01-18 01:20:00,31.1,30.6,30.18,North,-999,0.0,0.0,98,0.00,,,-99.99,FreeWX-Wi 1.01,2013-01-18 09:20:00,
2013-01-18 01:25:00,31.1,30.6,30.18,North,-999,0.0,0.0,98,0.00,,,-99.99,FreeWX-Wi 1.01,2013-01-18 09:25:00,
2013-01-18 01:30:00,31.1,30.6,30.18,North,-999,0.0,0.0,98,0.00,,,-99.99,FreeWX-Wi 1.01,2013-01-18 09:30:00,
2013-01-18 01:35:00,31.1,30.6,30.18,North,-999,0.0,0.0,98,0.00,,,-99.99,FreeWX-Wi 1.01,2013-01-18 09:35:00,
2013-01-18 01:40:00,30.9,30.4,30.18,North,-999,0.0,0.0,98,0.00,,,-99.99,FreeWX-Wi 1.01,2013-01-18 09:40:00,
2013-01-18 01:45:00,31.1,30.6,30.18,North,-999,0.0,0.0,98,0.00,,,-99.99,FreeWX-Wi 1.01,2013-01-18 09:45:00,
2013-01-18 01:50:00,31.1,30.6,30.18,North,-999,0.0,0.0,98,0.00,,,-99.99,FreeWX-Wi 1.01,2013-01-18 09:50:00,
2013-01-18 01:55:00,31.1,30.6,30.18,North,-999,0.0,0.0,98,0.00,,,-99.99,FreeWX-Wi 1.01,2013-01-18 09:55:00,
2013-01-18 02:00:00,31.3,30.7,30.18,North,-999,0.0,0.0,98,0.00,,,-99.99,FreeWX-Wi 1.01,2013-01-18 10:00:00,
2013-01-18 02:05:00,31.3,30.7,30.18,North,-999,0.0,3.1,98,0.00,,,-99.99,FreeWX-Wi 1.01,2013-01-18 10:05:00,
2013-01-18 02:10:00,31.3,30.7,30.18,North,-999,0.0,2.2,98,0.00,,,-99.99,FreeWX-Wi 1.01,2013-01-18 10:10:00,
2013-01-18 02:15:00,31.3,30.7,30.18,North,-999,0.0,0.0,98,0.00,,,-99.99,FreeWX-Wi 1.01,2013-01-18 10:15:00,
2013-01-18 02:20:00,31.3,30.7,30.18,North,-999,0.0,0.0,98,0.00,,,-99.99,FreeWX-Wi 1.01,2013-01-18 10:20:00,
2013-01-18 02:25:00,31.1,30.6,30.18,North,-999,0.0,0.0,98,0.00,,,-99.99,FreeWX-Wi 1.01,2013-01-18 10:25:00,
2013-01-18 02:30:00,31.3,30.7,30.18,North,-999,0.0,0.0,98,0.00,,,-99.99,FreeWX-Wi 1.01,2013-01-18 10:30:00,
2013-01-18 02:35:00,31.1,30.6,30.18,North,-999,0.0,0.0,98,0.00,,,-99.99,FreeWX-Wi 1.01,2013-01-18 10:35:00,
2013-01-18 02:40:00,30.9,30.4,30.18,North,-999,0.0,0.0,98,0.00,,,-99.99,FreeWX-Wi 1.01,2013-01-18 10:40:00,
2013-01-18 02:45:00,30.9,30.4,30.18,North,-999,0.0,0.0,98,0.00,,,-99.99,FreeWX-Wi 1.01,2013-01-18 10:45:00,
2013-01-18 02:50:00,30.7,30.2,30.18,North,-999,0.0,2.2,98,0.00,,,-99.99,FreeWX-Wi 1.01,2013-01-18 10:50:00,
2013-01-18 02:55:00,30.6,30.0,30.18,North,-999,0.0,0.0,98,0.00,,,-99.99,FreeWX-Wi 1.01,2013-01-18 10:55:00,
2013-01-18 03:00:00,30.6,30.0,30.18,North,-999,0.0,0.0,98,0.00,,,-99.99,FreeWX-Wi 1.01,2013-01-18 11:00:00,
2013-01-18 03:05:00,30.7,30.2,30.18,North,-999,0.0,0.0,98,0.00,,,-99.99,FreeWX-Wi 1.01,2013-01-18 11:05:00,
2013-01-18 03:10:00,30.7,30.2,30.18,North,-999,0.0,0.0,98,0.00,,,-99.99,FreeWX-Wi 1.01,2013-01-18 11:10:00,
2013-01-18 03:15:00,30.9,30.4,30.18,North,-999,0.0,0.0,98,0.00,,,-99.99,FreeWX-Wi 1.01,2013-01-18 11:15:00,
2013-01-18 03:20:00,30.9,30.4,30.18,North,-999,0.0,2.7,98,0.00,,,-99.99,FreeWX-Wi 1.01,2013-01-18 11:20:00,
2013-01-18 03:25:00,30.7,30.2,30.18,North,-999,0.0,2.2,98,0.00,,,-99.99,FreeWX-Wi 1.01,2013-01-18 11:25:00,
2013-01-18 03:30:00,31.1,30.6,30.18,North,-999,0.0,0.0,98,0.00,,,-99.99,FreeWX-Wi 1.01,2013-01-18 11:30:00,
2013-01-18 03:35:00,31.1,30.6,30.18,North,-999,0.0,0.0,98,0.00,,,-99.99,FreeWX-Wi 1.01,2013-01-18 11:35:00,
2013-01-18 03:40:00,31.1,30.6,30.18,North,-999,0.0,0.0,98,0.00,,,-99.99,FreeWX-Wi 1.01,2013-01-18 11:40:00,
2013-01-18 03:45:00,30.9,30.4,30.18,North,-999,0.0,0.0,98,0.00,,,-99.99,FreeWX-Wi 1.01,2013-01-18 11:45:00,
2013-01-18 03:50:00,30.7,30.2,30.18,North,-999,0.0,0.0,98,0.00,,,-99.99,FreeWX-Wi 1.01,2013-01-18 11:50:00,
2013-01-18 03:55:00,31.1,30.6,30.15,North,-999,0.0,0.0,98,0.00,,,-99.99,FreeWX-Wi 1.01,2013-01-18 11:55:00,
2013-01-18 04:00:00,30.7,30.2,30.15,North,-999,0.0,0.0,98,0.00,,,-99.99,FreeWX-Wi 1.01,2013-01-18 12:00:00,
2013-01-18 04:05:00,30.4,29.8,30.15,North,-999,0.0,0.0,98,0.00,,,-99.99,FreeWX-Wi 1.01,2013-01-18 12:05:00,
2013-01-18 04:10:00,30.2,29.7,30.15,North,-999,0.0,0.0,98,0.00,,,-99.99,FreeWX-Wi 1.01,2013-01-18 12:10:00,
2013-01-18 04:15:00,30.4,29.8,30.15,North,-999,0.0,0.0,98,0.00,,,-99.99,FreeWX-Wi 1.01,2013-01-18 12:15:00,
2013-01-18 04:20:00,30.4,29.8,30.15,North,-999,0.0,0.0,98,0.00,,,-99.99,FreeWX-Wi 1.01,2013-01-18 12:20:00,
2013-01-18 04:25:00,30.4,29.8,30.15,North,-999,0.0,0.0,98,0.00,,,-99.99,FreeWX-Wi 1.01,2013-01-18 12:25:00,
2013-01-18 04:30:00,30.2,29.7,30.15,North,-999,0.0,0.0,98,0.00,,,-99.99,FreeWX-Wi 1.01,2013-01-18 12:30:00,
2013-01-18 04:35:00,30.2,29.7,30.15,North,-999,0.0,0.0,98,0.00,,,-99.99,FreeWX-Wi 1.01,2013-01-18 12:35:00,
2013-01-18 04:40:00,30.2,29.7,30.15,North,-999,0.0,0.0,98,0.00,,,-99.99,FreeWX-Wi 1.01,2013-01-18 12:40:00,
2013-01-18 04:45:00,30.2,29.7,30.15,North,-999,0.0,0.0,98,0.00,,,-99.99,FreeWX-Wi 1.01,2013-01-18 12:45:00,
2013-01-18 04:50:00,30.4,29.8,30.15,North,-999,0.0,0.0,98,0.00,,,-99.99,FreeWX-Wi 1.01,2013-01-18 12:50:00,
2013-01-18 04:55:00,30.4,29.8,30.15,North,-999,0.0,0.0,98,0.00,,,-99.99,FreeWX-Wi 1.01,2013-01-18 12:55:00,
2013-01-18 05:00:00,30.6,30.0,30.15,North,-999,0.0,0.0,98,0.00,,,-99.99,FreeWX-Wi 1.01,2013-01-18 13:00:00,
2013-01-18 05:06:00,30.6,30.0,30.15,North,-999,0.0,0.0,98,0.00,,,-99.99,FreeWX-Wi 1.01,2013-01-18 13:06:00,
2013-01-18 05:11:00,30.6,30.0,30.15,North,-999,0.0,0.0,98,0.00,,,-99.99,FreeWX-Wi 1.01,2013-01-18 13:11:00,
2013-01-18 05:16:00,30.6,30.0,30.15,North,-999,0.0,0.0,98,0.00,,,-99.99,FreeWX-Wi 1.01,2013-01-18 13:16:00,
2013-01-18 05:21:00,30.6,30.0,30.15,North,-999,0.0,0.0,98,0.00,,,-99.99,FreeWX-Wi 1.01,2013-01-18 13:21:00,
2013-01-18 05:26:00,30.4,29.8,30.15,North,-999,0.0,0.0,98,0.00,,,-99.99,FreeWX-Wi 1.01,2013-01-18 13:26:00,
2013-01-18 05:31:00,30.4,29.8,30.15,North,-999,0.0,0.0,98,0.00,,,-99.99,FreeWX-Wi 1.01,2013-01-18 13:31:00,
2013-01-18 05:36:00,30.4,29.8,30.15,North,-999,0.0,0.0,98,0.00,,,-99.99,FreeWX-Wi 1.01,2013-01-18 13:36:00,
2013-01-18 05:41:00,30.2,29.7,30.15,North,-999,0.0,0.0,98,0.00,,,-99.99,FreeWX-Wi 1.01,2013-01-18 13:41:00,
2013-01-18 05:46:00,30.2,29.7,30.15,North,-999,0.0,0.0,98,0.00,,,-99.99,FreeWX-Wi 1.01,2013-01-18 13:46:00,
2013-01-18 05:51:00,30.4,29.8,30.15,North,-999,0.0,0.0,98,0.00,,,-99.99,FreeWX-Wi 1.01,2013-01-18 13:51:00,
2013-01-18 05:56:00,30.2,29.7,30.15,North,-999,0.0,0.0,98,0.00,,,-99.99,FreeWX-Wi 1.01,2013-01-18 13:56:00,
2013-01-18 06:01:00,30.2,29.7,30.15,North,-999,0.0,0.0,98,0.00,,,-99.99,FreeWX-Wi 1.01,2013-01-18 14:01:00,
2013-01-18 06:06:00,30.2,29.7,30.15,North,-999,0.0,0.0,98,0.00,,,-99.99,FreeWX-Wi 1.01,2013-01-18 14:06:00,
2013-01-18 06:11:00,30.0,29.5,30.15,North,-999,0.0,0.0,98,0.00,,,-99.99,FreeWX-Wi 1.01,2013-01-18 14:11:00,
2013-01-18 06:16:00,29.8,29.3,30.15,North,-999,0.0,0.0,98,0.00,,,-99.99,FreeWX-Wi 1.01,2013-01-18 14:16:00,
2013-01-18 06:21:00,29.8,29.3,30.15,North,-999,0.0,0.0,98,0.00,,,-99.99,FreeWX-Wi 1.01,2013-01-18 14:21:00,
2013-01-18 06:26:00,29.8,29.3,30.15,North,-999,0.0,0.0,98,0.00,,,-99.99,FreeWX-Wi 1.01,2013-01-18 14:26:00,
2013-01-18 06:31:00,29.8,29.3,30.15,North,-999,0.0,0.0,98,0.00,,,-99.99,FreeWX-Wi 1.01,2013-01-18 14:31:00,
2013-01-18 06:36:00,29.7,29.1,30.15,North,-999,0.0,0.0,98,0.00,,,-99.99,FreeWX-Wi 1.01,2013-01-18 14:36:00,
2013-01-18 06:41:00,29.7,29.1,30.15,North,-999,0.0,0.0,98,0.00,,,-99.99,FreeWX-Wi 1.01,2013-01-18 14:41:00,
2013-01-18 06:46:00,29.7,29.1,30.15,North,-999,0.0,0.0,98,0.00,,,-99.99,FreeWX-Wi 1.01,2013-01-18 14:46:00,
2013-01-18 06:51:00,29.8,29.3,30.15,North,-999,0.0,0.0,98,0.00,,,-99.99,FreeWX-Wi 1.01,2013-01-18 14:51:00,
2013-01-18 06:56:00,30.0,29.5,30.15,North,-999,0.0,0.0,98,0.00,,,-99.99,FreeWX-Wi 1.01,2013-01-18 14:56:00,
2013-01-18 07:01:00,30.0,29.5,30.15,North,-999,0.0,0.0,98,0.00,,,-99.99,FreeWX-Wi 1.01,2013-01-18 15:01:00,
2013-01-18 07:06:00,30.0,29.5,30.15,North,-999,0.0,0.0,98,0.00,,,-99.99,FreeWX-Wi 1.01,2013-01-18 15:06:00,
2013-01-18 07:11:00,30.0,29.5,30.15,North,-999,0.0,0.0,98,0.00,,,-99.99,FreeWX-Wi 1.01,2013-01-18 15:11:00,
2013-01-18 07:16:00,30.0,29.5,30.15,North,-999,0.0,0.0,98,0.00,,,-99.99,FreeWX-Wi 1.01,2013-01-18 15:16:00,
2013-01-18 07:21:00,30.2,29.7,30.15,North,-999,0.0,0.0,98,0.00,,,-99.99,FreeWX-Wi 1.01,2013-01-18 15:21:00,
2013-01-18 07:26:00,30.2,29.7,30.15,North,-999,0.0,0.0,98,0.00,,,-99.99,FreeWX-Wi 1.01,2013-01-18 15:26:00,
2013-01-18 07:31:00,30.4,29.8,30.15,North,-999,0.0,0.0,98,0.00,,,-99.99,FreeWX-Wi 1.01,2013-01-18 15:31:00,
2013-01-18 07:36:00,30.4,29.8,30.15,North,-999,0.0,0.0,98,0.00,,,-99.99,FreeWX-Wi 1.01,2013-01-18 15:36:00,
2013-01-18 07:41:00,30.6,30.0,30.15,North,-999,0.0,0.0,98,0.00,,,-99.99,FreeWX-Wi 1.01,2013-01-18 15:41:00,
2013-01-18 07:46:00,30.6,30.0,30.15,North,-999,0.0,0.0,98,0.00,,,-99.99,FreeWX-Wi 1.01,2013-01-18 15:46:00,
2013-01-18 07:51:00,30.6,30.0,30.15,North,-999,0.0,0.0,98,0.00,,,-99.99,FreeWX-Wi 1.01,2013-01-18 15:51:00,
2013-01-18 07:56:00,30.6,30.0,30.15,North,-999,0.0,0.0,98,0.00,,,-99.99,FreeWX-Wi 1.01,2013-01-18 15:56:00,
2013-01-18 08:01:00,30.7,30.2,30.15,North,-999,0.0,0.0,98,0.00,,,-99.99,FreeWX-Wi 1.01,2013-01-18 16:01:00,
2013-01-18 08:06:00,30.7,30.2,30.15,North,-999,0.0,0.0,98,0.00,,,-99.99,FreeWX-Wi 1.01,2013-01-18 16:06:00,
2013-01-18 08:11:00,30.7,30.2,30.15,North,-999,0.0,2.7,98,0.00,,,-99.99,FreeWX-Wi 1.01,2013-01-18 16:11:00,
2013-01-18 08:16:00,30.7,30.2,30.15,North,-999,0.0,0.0,98,0.00,,,-99.99,FreeWX-Wi 1.01,2013-01-18 16:16:00,
2013-01-18 08:21:00,30.7,30.2,30.15,North,-999,0.0,0.0,98,0.00,,,-99.99,FreeWX-Wi 1.01,2013-01-18 16:21:00,
2013-01-18 08:26:00,30.7,30.2,30.15,North,-999,0.0,0.0,98,0.00,,,-99.99,FreeWX-Wi 1.01,2013-01-18 16:26:00,
2013-01-18 08:31:00,30.6,30.0,30.15,North,-999,0.0,0.0,98,0.00,,,-99.99,FreeWX-Wi 1.01,2013-01-18 16:31:00,
2013-01-18 08:36:00,30.4,29.8,30.15,North,-999,0.0,0.0,98,0.00,,,-99.99,FreeWX-Wi 1.01,2013-01-18 16:36:00,
2013-01-18 08:41:00,30.4,29.8,30.18,North,-999,0.0,0.0,98,0.00,,,-99.99,FreeWX-Wi 1.01,2013-01-18 16:41:00,
2013-01-18 08:46:00,30.4,29.8,30.18,North,-999,0.0,0.0,98,0.00,,,-99.99,FreeWX-Wi 1.01,2013-01-18 16:46:00,
2013-01-18 08:51:00,30.4,29.8,30.18,North,-999,0.0,0.0,98,0.00,,,-99.99,FreeWX-Wi 1.01,2013-01-18 16:51:00,
2013-01-18 08:56:00,30.6,30.0,30.18,North,-999,0.0,0.0,98,0.00,,,-99.99,FreeWX-Wi 1.01,2013-01-18 16:56:00,
2013-01-18 09:01:00,30.6,30.0,30.18,North,-999,0.0,0.0,98,0.00,,,-99.99,FreeWX-Wi 1.01,2013-01-18 17:01:00,
2013-01-18 09:06:00,30.6,30.0,30.18,North,-999,0.0,0.0,98,0.00,,,-99.99,FreeWX-Wi 1.01,2013-01-18 17:06:00,
2013-01-18 09:11:00,30.7,30.2,30.18,North,-999,0.0,0.0,98,0.00,,,-99.99,FreeWX-Wi 1.01,2013-01-18 17:11:00,
2013-01-18 09:16:00,30.9,30.4,30.18,North,-999,0.0,0.0,98,0.00,,,-99.99,FreeWX-Wi 1.01,2013-01-18 17:16:00,
2013-01-18 09:21:00,31.1,30.6,30.18,North,-999,0.0,0.0,98,0.00,,,-99.99,FreeWX-Wi 1.01,2013-01-18 17:21:00,
2013-01-18 09:26:00,31.1,30.6,30.18,North,-999,0.0,0.0,98,0.00,,,-99.99,FreeWX-Wi 1.01,2013-01-18 17:26:00,
2013-01-18 09:31:00,30.9,30.4,30.18,North,-999,0.0,2.2,98,0.00,,,-99.99,FreeWX-Wi 1.01,2013-01-18 17:31:00,
2013-01-18 09:36:00,30.9,30.4,30.18,North,-999,0.0,0.0,98,0.00,,,-99.99,FreeWX-Wi 1.01,2013-01-18 17:36:00,
2013-01-18 09:41:00,30.9,30.4,30.18,North,-999,0.0,0.0,98,0.00,,,-99.99,FreeWX-Wi 1.01,2013-01-18 17:41:00,
2013-01-18 09:46:00,30.9,30.4,30.18,North,-999,0.0,2.2,98,0.00,,,-99.99,FreeWX-Wi 1.01,2013-01-18 17:46:00,
2013-01-18 09:51:00,30.7,30.2,30.18,North,-999,0.0,0.0,98,0.00,,,-99.99,FreeWX-Wi 1.01,2013-01-18 17:51:00,
2013-01-18 09:56:00,30.9,30.4,30.18,North,-999,0.0,0.0,98,0.00,,,-99.99,FreeWX-Wi 1.01,2013-01-18 17:56:00,
2013-01-18 10:01:00,30.9,30.4,30.18,North,-999,0.0,2.7,98,0.00,,,-99.99,FreeWX-Wi 1.01,2013-01-18 18:01:00,
2013-01-18 10:06:00,31.1,30.6,30.18,North,-999,0.0,2.2,98,0.00,,,-99.99,FreeWX-Wi 1.01,2013-01-18 18:06:00,
2013-01-18 10:11:00,30.9,30.4,30.21,North,-999,0.0,3.1,98,0.00,,,-99.99,FreeWX-Wi 1.01,2013-01-18 18:11:00,
2013-01-18 10:16:00,30.6,30.0,30.21,North,-999,0.0,3.6,98,0.00,,,-99.99,FreeWX-Wi 1.01,2013-01-18 18:16:00,
2013-01-18 10:21:00,30.7,30.2,30.21,North,-999,0.0,3.6,98,0.00,,,-99.99,FreeWX-Wi 1.01,2013-01-18 18:21:00,
2013-01-18 10:26:00,30.9,30.4,30.18,North,-999,0.0,4.0,98,0.00,,,-99.99,FreeWX-Wi 1.01,2013-01-18 18:26:00,
2013-01-18 10:31:00,30.9,30.4,30.18,North,-999,0.0,2.2,98,0.00,,,-99.99,FreeWX-Wi 1.01,2013-01-18 18:31:00,
2013-01-18 10:36:00,31.1,30.6,30.18,North,-999,0.0,3.1,98,0.00,,,-99.99,FreeWX-Wi 1.01,2013-01-18 18:36:00,
2013-01-18 10:41:00,31.5,30.9,30.18,North,-999,0.0,0.0,98,0.00,,,-99.99,FreeWX-Wi 1.01,2013-01-18 18:41:00,
2013-01-18 10:46:00,31.6,31.1,30.18,North,-999,0.0,0.0,98,0.00,,,-99.99,FreeWX-Wi 1.01,2013-01-18 18:46:00,
2013-01-18 10:51:00,31.8,31.3,30.18,North,-999,0.0,0.0,98,0.00,,,-99.99,FreeWX-Wi 1.01,2013-01-18 18:51:00,
2013-01-18 10:56:00,32.2,31.6,30.18,North,-999,0.0,0.0,98,0.00,,,-99.99,FreeWX-Wi 1.01,2013-01-18 18:56:00,
2013-01-18 11:01:00,32.2,31.6,30.18,North,-999,0.0,0.0,98,0.00,,,-99.99,FreeWX-Wi 1.01,2013-01-18 19:01:00,
2013-01-18 11:06:00,32.4,31.8,30.18,North,-999,0.0,0.0,98,0.00,,,-99.99,FreeWX-Wi 1.01,2013-01-18 19:06:00,
2013-01-18 11:11:00,32.5,32.0,30.18,North,-999,0.0,0.0,98,0.00,,,-99.99,FreeWX-Wi 1.01,2013-01-18 19:11:00,
2013-01-18 11:16:00,32.7,32.2,30.18,North,-999,0.0,0.0,98,0.00,,,-99.99,FreeWX-Wi 1.01,2013-01-18 19:16:00,
2013-01-18 11:21:00,32.7,32.2,30.18,North,-999,0.0,0.0,98,0.00,,,-99.99,FreeWX-Wi 1.01,2013-01-18 19:21:00,
2013-01-18 11:26:00,33.1,32.5,30.18,North,-999,0.0,0.0,98,0.00,,,-99.99,FreeWX-Wi 1.01,2013-01-18 19:26:00,
2013-01-18 11:31:00,33.4,32.9,30.18,North,-999,0.0,0.0,98,0.00,,,-99.99,FreeWX-Wi 1.01,2013-01-18 19:31:00,
2013-01-18 11:36:00,33.8,33.3,30.18,North,-999,0.0,0.0,98,0.00,,,-99.99,FreeWX-Wi 1.01,2013-01-18 19:36:00,
2013-01-18 11:41:00,34.5,34.0,30.18,North,-999,0.0,0.0,98,0.00,,,-99.99,FreeWX-Wi 1.01,2013-01-18 19:41:00,
2013-01-18 11:46:00,34.9,34.3,30.18,North,-999,0.0,0.0,98,0.00,,,-99.99,FreeWX-Wi 1.01,2013-01-18 19:46:00,
2013-01-18 11:51:00,35.1,34.5,30.18,North,-999,0.0,0.0,98,0.00,,,-99.99,FreeWX-Wi 1.01,2013-01-18 19:51:00,
2013-01-18 11:56:00,35.2,34.7,30.18,North,-999,0.0,0.0,98,0.00,,,-99.99,FreeWX-Wi 1.01,2013-01-18 19:56:00,
2013-01-18 12:01:00,35.8,35.2,30.18,North,-999,0.0,0.0,98,0.00,,,-99.99,FreeWX-Wi 1.01,2013-01-18 20:01:00,
2013-01-18 12:06:00,36.0,35.4,30.18,North,-999,0.0,0.0,98,0.00,,,-99.99,FreeWX-Wi 1.01,2013-01-18 20:06:00,
2013-01-18 12:11:00,36.1,35.6,30.18,North,-999,0.0,0.0,98,0.00,,,-99.99,FreeWX-Wi 1.01,2013-01-18 20:11:00,
2013-01-18 12:16:00,36.1,35.6,30.18,North,-999,0.0,2.2,98,0.00,,,-99.99,FreeWX-Wi 1.01,2013-01-18 20:16:00,
2013-01-18 12:21:00,36.1,35.6,30.18,North,-999,0.0,0.0,98,0.00,,,-99.99,FreeWX-Wi 1.01,2013-01-18 20:21:00,
2013-01-18 12:26:00,36.5,36.0,30.18,North,-999,0.0,0.0,98,0.00,,,-99.99,FreeWX-Wi 1.01,2013-01-18 20:26:00,
2013-01-18 12:31:00,36.1,35.6,30.18,North,-999,0.0,3.1,98,0.00,,,-99.99,FreeWX-Wi 1.01,2013-01-18 20:31:00,
2013-01-18 12:36:00,35.8,35.2,30.18,North,-999,0.0,3.6,98,0.00,,,-99.99,FreeWX-Wi 1.01,2013-01-18 20:36:00,
2013-01-18 12:41:00,35.4,34.9,30.18,North,-999,0.0,2.7,98,0.00,,,-99.99,FreeWX-Wi 1.01,2013-01-18 20:41:00,
2013-01-18 12:46:00,35.6,35.1,30.18,North,-999,0.0,0.0,98,0.00,,,-99.99,FreeWX-Wi 1.01,2013-01-18 20:46:00,
2013-01-18 12:51:00,35.4,34.9,30.18,North,-999,0.0,2.7,98,0.00,,,-99.99,FreeWX-Wi 1.01,2013-01-18 20:51:00,
2013-01-18 12:56:00,35.4,34.9,30.18,North,-999,0.0,0.0,98,0.00,,,-99.99,FreeWX-Wi 1.01,2013-01-18 20:56:00,
2013-01-18 13:01:00,35.4,34.9,30.18,North,-999,0.0,0.0,98,0.00,,,-99.99,FreeWX-Wi 1.01,2013-01-18 21:01:00,
2013-01-18 13:06:00,35.8,35.2,30.18,North,-999,0.0,0.0,98,0.00,,,-99.99,FreeWX-Wi 1.01,2013-01-18 21:06:00,
2013-01-18 13:11:00,35.6,35.1,30.18,North,-999,0.0,3.6,98,0.00,,,-99.99,FreeWX-Wi 1.01,2013-01-18 21:11:00,
2013-01-18 13:16:00,35.4,34.9,30.18,North,-999,0.0,0.0,98,0.00,,,-99.99,FreeWX-Wi 1.01,2013-01-18 21:16:00,
2013-01-18 13:21:00,35.6,35.1,30.18,North,-999,0.0,0.0,98,0.00,,,-99.99,FreeWX-Wi 1.01,2013-01-18 21:21:00,
2013-01-18 13:26:00,35.6,35.1,30.18,North,-999,0.0,0.0,98,0.00,,,-99.99,FreeWX-Wi 1.01,2013-01-18 21:26:00,
2013-01-18 13:31:00,35.6,35.1,30.18,North,-999,0.0,2.7,98,0.00,,,-99.99,FreeWX-Wi 1.01,2013-01-18 21:31:00,
2013-01-18 13:36:00,35.6,35.1,30.18,North,-999,0.0,3.6,98,0.00,,,-99.99,FreeWX-Wi 1.01,2013-01-18 21:36:00,
2013-01-18 13:41:00,35.6,35.1,30.18,North,-999,0.0,0.0,98,0.00,,,-99.99,FreeWX-Wi 1.01,2013-01-18 21:41:00,
2013-01-18 13:46:00,35.4,34.9,30.18,North,-999,0.0,2.2,98,0.00,,,-99.99,FreeWX-Wi 1.01,2013-01-18 21:46:00,
2013-01-18 13:51:00,35.4,34.9,30.18,North,-999,0.0,2.2,98,0.00,,,-99.99,FreeWX-Wi 1.01,2013-01-18 21:51:00,
2013-01-18 13:56:00,35.6,35.1,30.18,North,-999,0.0,0.0,98,0.00,,,-99.99,FreeWX-Wi 1.01,2013-01-18 21:56:00,
2013-01-18 14:01:00,35.4,34.9,30.18,North,-999,0.0,0.0,98,0.00,,,-99.99,FreeWX-Wi 1.01,2013-01-18 22:01:00,
2013-01-18 14:06:00,35.6,35.1,30.18,North,-999,0.0,0.0,98,0.00,,,-99.99,FreeWX-Wi 1.01,2013-01-18 22:06:00,
2013-01-18 14:11:00,35.6,35.1,30.18,North,-999,0.0,3.1,98,0.00,,,-99.99,FreeWX-Wi 1.01,2013-01-18 22:11:00,
2013-01-18 14:16:00,35.6,35.1,30.18,North,-999,0.0,2.2,98,0.00,,,-99.99,FreeWX-Wi 1.01,2013-01-18 22:16:00,
2013-01-18 14:21:00,35.8,35.2,30.18,North,-999,0.0,0.0,98,0.00,,,-99.99,FreeWX-Wi 1.01,2013-01-18 22:21:00,
2013-01-18 14:26:00,35.8,35.2,30.18,North,-999,0.0,0.0,98,0.00,,,-99.99,FreeWX-Wi 1.01,2013-01-18 22:26:00,
2013-01-18 14:31:00,36.1,35.6,30.18,North,-999,0.0,0.0,98,0.00,,,-99.99,FreeWX-Wi 1.01,2013-01-18 22:31:00,
2013-01-18 14:36:00,36.1,35.6,30.18,North,-999,0.0,0.0,98,0.00,,,-99.99,FreeWX-Wi 1.01,2013-01-18 22:36:00,
2013-01-18 14:41:00,35.8,35.2,30.15,North,-999,0.0,3.1,98,0.00,,,-99.99,FreeWX-Wi 1.01,2013-01-18 22:41:00,
2013-01-18 14:46:00,35.4,34.9,30.15,North,-999,0.0,4.0,98,0.00,,,-99.99,FreeWX-Wi 1.01,2013-01-18 22:46:00,
2013-01-18 14:51:00,35.4,34.9,30.15,North,-999,0.0,0.0,98,0.00,,,-99.99,FreeWX-Wi 1.01,2013-01-18 22:51:00,
2013-01-18 14:56:00,35.6,35.1,30.18,North,-999,0.0,0.0,98,0.00,,,-99.99,FreeWX-Wi 1.01,2013-01-18 22:56:00,
2013-01-18 15:01:00,35.8,35.2,30.18,North,-999,0.0,0.0,98,0.00,,,-99.99,FreeWX-Wi 1.01,2013-01-18 23:01:00,
2013-01-18 15:06:00,35.8,35.2,30.18,North,-999,0.0,0.0,98,0.00,,,-99.99,FreeWX-Wi 1.01,2013-01-18 23:06:00,
2013-01-18 15:11:00,35.4,34.9,30.18,North,-999,0.0,2.2,98,0.00,,,-99.99,FreeWX-Wi 1.01,2013-01-18 23:11:00,
2013-01-18 15:16:00,35.4,34.9,30.18,North,-999,0.0,0.0,98,0.00,,,-99.99,FreeWX-Wi 1.01,2013-01-18 23:16:00,
2013-01-18 15:21:00,35.4,34.9,30.18,North,-999,0.0,0.0,98,0.00,,,-99.99,FreeWX-Wi 1.01,2013-01-18 23:21:00,
2013-01-18 15:26:00,35.2,34.7,30.18,North,-999,0.0,0.0,98,0.00,,,-99.99,FreeWX-Wi 1.01,2013-01-18 23:26:00,
2013-01-18 15:31:00,34.9,34.3,30.18,North,-999,0.0,0.0,98,0.00,,,-99.99,FreeWX-Wi 1.01,2013-01-18 23:31:00,
2013-01-18 15:36:00,34.9,34.3,30.18,North,-999,0.0,0.0,98,0.00,,,-99.99,FreeWX-Wi 1.01,2013-01-18 23:36:00,
2013-01-18 15:41:00,34.9,34.3,30.18,North,-999,0.0,0.0,98,0.00,,,-99.99,FreeWX-Wi 1.01,2013-01-18 23:41:00,
2013-01-18 15:46:00,35.2,34.7,30.18,North,-999,0.0,0.0,98,0.00,,,-99.99,FreeWX-Wi 1.01,2013-01-18 23:46:00,
2013-01-18 15:51:00,35.1,34.5,30.18,North,-999,0.0,0.0,98,0.00,,,-99.99,FreeWX-Wi 1.01,2013-01-18 23:51:00,
2013-01-18 15:56:00,34.9,34.3,30.18,North,-999,0.0,0.0,98,0.00,,,-99.99,FreeWX-Wi 1.01,2013-01-18 23:56:00,
2013-01-18 16:01:00,34.7,34.2,30.18,North,-999,0.0,0.0,98,0.00,,,-99.99,FreeWX-Wi 1.01,2013-01-19 00:01:00,
2013-01-18 16:06:00,34.5,34.0,30.18,North,-999,0.0,0.0,98,0.00,,,-99.99,FreeWX-Wi 1.01,2013-01-19 00:06:00,
2013-01-18 16:11:00,34.3,33.8,30.18,North,-999,0.0,0.0,98,0.00,,,-99.99,FreeWX-Wi 1.01,2013-01-19 00:11:00,
2013-01-18 16:16:00,34.3,33.8,30.18,North,-999,0.0,0.0,98,0.00,,,-99.99,FreeWX-Wi 1.01,2013-01-19 00:16:00,
2013-01-18 16:21:00,34.2,33.6,30.18,North,-999,0.0,0.0,98,0.00,,,-99.99,FreeWX-Wi 1.01,2013-01-19 00:21:00,
2013-01-18 16:26:00,34.0,33.4,30.18,North,-999,0.0,3.1,98,0.00,,,-99.99,FreeWX-Wi 1.01,2013-01-19 00:26:00,
2013-01-18 16:31:00,33.8,33.3,30.18,North,-999,0.0,2.2,98,0.00,,,-99.99,FreeWX-Wi 1.01,2013-01-19 00:31:00,
2013-01-18 16:36:00,33.8,33.3,30.18,North,-999,0.0,0.0,98,0.00,,,-99.99,FreeWX-Wi 1.01,2013-01-19 00:36:00,
2013-01-18 16:41:00,33.8,33.3,30.18,North,-999,0.0,0.0,98,0.00,,,-99.99,FreeWX-Wi 1.01,2013-01-19 00:41:00,
2013-01-18 16:47:00,33.8,33.3,30.18,North,-999,0.0,0.0,98,0.00,,,-99.99,FreeWX-Wi 1.01,2013-01-19 00:47:00,
2013-01-18 16:52:00,33.8,33.3,30.18,North,-999,0.0,0.0,98,0.00,,,-99.99,FreeWX-Wi 1.01,2013-01-19 00:52:00,
2013-01-18 16:57:00,33.8,33.3,30.18,North,-999,0.0,0.0,98,0.00,,,-99.99,FreeWX-Wi 1.01,2013-01-19 00:57:00,
2013-01-18 17:02:00,33.6,33.1,30.18,North,-999,0.0,0.0,98,0.00,,,-99.99,FreeWX-Wi 1.01,2013-01-19 01:02:00,
2013-01-18 17:07:00,33.6,33.1,30.18,North,-999,0.0,0.0,98,0.00,,,-99.99,FreeWX-Wi 1.01,2013-01-19 01:07:00,
2013-01-18 17:12:00,33.8,33.3,30.18,North,-999,0.0,0.0,98,0.00,,,-99.99,FreeWX-Wi 1.01,2013-01-19 01:12:00,
2013-01-18 17:17:00,33.4,32.9,30.18,North,-999,0.0,0.0,98,0.00,,,-99.99,FreeWX-Wi 1.01,2013-01-19 01:17:00,
2013-01-18 17:22:00,33.3,32.7,30.18,North,-999,0.0,0.0,98,0.00,,,-99.99,FreeWX-Wi 1.01,2013-01-19 01:22:00,
2013-01-18 17:27:00,33.3,32.7,30.18,North,-999,0.0,0.0,98,0.00,,,-99.99,FreeWX-Wi 1.01,2013-01-19 01:27:00,
2013-01-18 17:32:00,33.3,32.7,30.18,North,-999,0.0,0.0,98,0.00,,,-99.99,FreeWX-Wi 1.01,2013-01-19 01:32:00,
2013-01-18 17:37:00,33.3,32.7,30.18,North,-999,0.0,0.0,98,0.00,,,-99.99,FreeWX-Wi 1.01,2013-01-19 01:37:00,
2013-01-18 17:42:00,33.3,32.7,30.18,North,-999,0.0,0.0,98,0.00,,,-99.99,FreeWX-Wi 1.01,2013-01-19 01:42:00,
2013-01-18 17:47:00,33.3,32.7,30.18,North,-999,0.0,0.0,98,0.00,,,-99.99,FreeWX-Wi 1.01,2013-01-19 01:47:00,
2013-01-18 17:52:00,33.3,32.7,30.18,North,-999,0.0,0.0,98,0.00,,,-99.99,FreeWX-Wi 1.01,2013-01-19 01:52:00,
2013-01-18 17:57:00,33.1,32.5,30.18,North,-999,0.0,0.0,98,0.00,,,-99.99,FreeWX-Wi 1.01,2013-01-19 01:57:00,
2013-01-18 18:02:00,33.1,32.5,30.18,North,-999,0.0,0.0,98,0.00,,,-99.99,FreeWX-Wi 1.01,2013-01-19 02:02:00,
2013-01-18 18:07:00,33.1,32.5,30.18,North,-999,0.0,0.0,98,0.00,,,-99.99,FreeWX-Wi 1.01,2013-01-19 02:07:00,
2013-01-18 18:12:00,32.9,32.4,30.18,North,-999,0.0,0.0,98,0.00,,,-99.99,FreeWX-Wi 1.01,2013-01-19 02:12:00,
2013-01-18 18:17:00,32.7,32.2,30.18,North,-999,0.0,0.0,98,0.00,,,-99.99,FreeWX-Wi 1.01,2013-01-19 02:17:00,
2013-01-18 18:22:00,32.9,32.4,30.18,North,-999,0.0,0.0,98,0.00,,,-99.99,FreeWX-Wi 1.01,2013-01-19 02:22:00,
2013-01-18 18:27:00,32.7,32.2,30.18,North,-999,0.0,0.0,98,0.00,,,-99.99,FreeWX-Wi 1.01,2013-01-19 02:27:00,
2013-01-18 18:32:00,32.7,32.2,30.18,North,-999,0.0,0.0,98,0.00,,,-99.99,FreeWX-Wi 1.01,2013-01-19 02:32:00,
2013-01-18 18:37:00,32.7,32.2,30.18,North,-999,0.0,0.0,98,0.00,,,-99.99,FreeWX-Wi 1.01,2013-01-19 02:37:00,
2013-01-18 18:42:00,32.7,32.2,30.18,North,-999,0.0,0.0,98,0.00,,,-99.99,FreeWX-Wi 1.01,2013-01-19 02:42:00,
2013-01-18 18:47:00,32.9,32.4,30.18,North,-999,0.0,0.0,98,0.00,,,-99.99,FreeWX-Wi 1.01,2013-01-19 02:47:00,
2013-01-18 18:52:00,32.7,32.2,30.18,North,-999,0.0,0.0,98,0.00,,,-99.99,FreeWX-Wi 1.01,2013-01-19 02:52:00,
2013-01-18 18:57:00,32.5,32.0,30.18,North,-999,0.0,0.0,98,0.00,,,-99.99,FreeWX-Wi 1.01,2013-01-19 02:57:00,
2013-01-18 19:07:00,32.5,32.0,30.18,North,-999,0.0,0.0,98,0.00,,,-99.99,FreeWX-Wi 1.01,2013-01-19 03:07:00,
2013-01-18 19:12:00,32.4,31.8,30.21,North,-999,0.0,0.0,98,0.00,,,-99.99,FreeWX-Wi 1.01,2013-01-19 03:12:00,
2013-01-18 19:17:00,32.4,31.8,30.21,North,-999,0.0,0.0,98,0.00,,,-99.99,FreeWX-Wi 1.01,2013-01-19 03:17:00,
2013-01-18 19:22:00,32.2,31.6,30.21,North,-999,0.0,0.0,98,0.00,,,-99.99,FreeWX-Wi 1.01,2013-01-19 03:22:00,
2013-01-18 19:27:00,32.0,31.5,30.18,North,-999,0.0,0.0,98,0.00,,,-99.99,FreeWX-Wi 1.01,2013-01-19 03:27:00,
2013-01-18 19:32:00,32.0,31.5,30.18,North,-999,0.0,0.0,98,0.00,,,-99.99,FreeWX-Wi 1.01,2013-01-19 03:32:00,
2013-01-18 19:37:00,31.8,31.3,30.18,North,-999,0.0,0.0,98,0.00,,,-99.99,FreeWX-Wi 1.01,2013-01-19 03:37:00,
2013-01-18 19:42:00,31.6,31.1,30.18,North,-999,0.0,0.0,98,0.00,,,-99.99,FreeWX-Wi 1.01,2013-01-19 03:42:00,
2013-01-18 19:47:00,31.5,30.9,30.18,North,-999,0.0,0.0,98,0.00,,,-99.99,FreeWX-Wi 1.01,2013-01-19 03:47:00,
2013-01-18 19:52:00,31.5,30.9,30.18,North,-999,0.0,0.0,98,0.00,,,-99.99,FreeWX-Wi 1.01,2013-01-19 03:52:00,
2013-01-18 19:57:00,31.5,30.9,30.21,North,-999,0.0,0.0,98,0.00,,,-99.99,FreeWX-Wi 1.01,2013-01-19 03:57:00,
2013-01-18 20:02:00,31.5,30.9,30.21,North,-999,0.0,0.0,98,0.00,,,-99.99,FreeWX-Wi 1.01,2013-01-19 04:02:00,
2013-01-18 20:07:00,31.5,30.9,30.21,North,-999,0.0,0.0,98,0.00,,,-99.99,FreeWX-Wi 1.01,2013-01-19 04:07:00,
2013-01-18 20:12:00,31.5,30.9,30.21,North,-999,0.0,0.0,98,0.00,,,-99.99,FreeWX-Wi 1.01,2013-01-19 04:12:00,
2013-01-18 20:17:00,31.3,30.7,30.21,North,-999,0.0,0.0,98,0.00,,,-99.99,FreeWX-Wi 1.01,2013-01-19 04:17:00,
2013-01-18 20:22:00,31.5,30.9,30.21,North,-999,0.0,0.0,98,0.00,,,-99.99,FreeWX-Wi 1.01,2013-01-19 04:22:00,
2013-01-18 20:27:00,31.5,30.9,30.21,North,-999,0.0,0.0,98,0.00,,,-99.99,FreeWX-Wi 1.01,2013-01-19 04:27:00,
2013-01-18 20:32:00,31.5,30.9,30.21,North,-999,0.0,0.0,98,0.00,,,-99.99,FreeWX-Wi 1.01,2013-01-19 04:32:00,
2013-01-18 20:37:00,31.6,31.1,30.21,North,-999,0.0,0.0,98,0.00,,,-99.99,FreeWX-Wi 1.01,2013-01-19 04:37:00,
2013-01-18 20:42:00,31.6,31.1,30.21,North,-999,0.0,0.0,98,0.00,,,-99.99,FreeWX-Wi 1.01,2013-01-19 04:42:00,
2013-01-18 20:47:00,31.6,31.1,30.21,North,-999,0.0,0.0,98,0.00,,,-99.99,FreeWX-Wi 1.01,2013-01-19 04:47:00,
2013-01-18 20:52:00,31.6,31.1,30.21,North,-999,0.0,0.0,98,0.00,,,-99.99,FreeWX-Wi 1.01,2013-01-19 04:52:00,
2013-01-18 20:57:00,31.6,31.1,30.21,North,-999,0.0,0.0,98,0.00,,,-99.99,FreeWX-Wi 1.01,2013-01-19 04:57:00,
2013-01-18 21:02:00,31.6,31.1,30.21,North,-999,0.0,0.0,98,0.00,,,-99.99,FreeWX-Wi 1.01,2013-01-19 05:02:00,
2013-01-18 21:07:00,31.6,31.1,30.21,North,-999,0.0,0.0,98,0.00,,,-99.99,FreeWX-Wi 1.01,2013-01-19 05:07:00,
2013-01-18 21:12:00,31.6,31.1,30.21,North,-999,0.0,0.0,98,0.00,,,-99.99,FreeWX-Wi 1.01,2013-01-19 05:12:00,
2013-01-18 21:17:00,31.5,30.9,30.21,North,-999,0.0,0.0,98,0.00,,,-99.99,FreeWX-Wi 1.01,2013-01-19 05:17:00,
2013-01-18 21:22:00,31.1,30.6,30.21,North,-999,0.0,0.0,98,0.00,,,-99.99,FreeWX-Wi 1.01,2013-01-19 05:22:00,
2013-01-18 21:27:00,31.1,30.6,30.21,North,-999,0.0,0.0,98,0.00,,,-99.99,FreeWX-Wi 1.01,2013-01-19 05:27:00,
2013-01-18 21:32:00,31.1,30.6,30.21,North,-999,0.0,0.0,98,0.00,,,-99.99,FreeWX-Wi 1.01,2013-01-19 05:32:00,
2013-01-18 21:37:00,30.9,30.4,30.21,North,-999,0.0,0.0,98,0.00,,,-99.99,FreeWX-Wi 1.01,2013-01-19 05:37:00,
2013-01-18 21:42:00,31.1,30.6,30.21,North,-999,0.0,0.0,98,0.00,,,-99.99,FreeWX-Wi 1.01,2013-01-19 05:42:00,
2013-01-18 21:47:00,30.9,30.4,30.21,North,-999,0.0,0.0,98,0.00,,,-99.99,FreeWX-Wi 1.01,2013-01-19 05:47:00,
2013-01-18 21:52:00,30.7,30.2,30.21,North,-999,0.0,0.0,98,0.00,,,-99.99,FreeWX-Wi 1.01,2013-01-19 05:52:00,
2013-01-18 21:57:00,30.7,30.2,30.24,North,-999,0.0,0.0,98,0.00,,,-99.99,FreeWX-Wi 1.01,2013-01-19 05:57:00,
2013-01-18 22:02:00,30.7,30.2,30.24,North,-999,0.0,0.0,98,0.00,,,-99.99,FreeWX-Wi 1.01,2013-01-19 06:02:00,
2013-01-18 22:07:00,30.9,30.4,30.24,North,-999,0.0,0.0,98,0.00,,,-99.99,FreeWX-Wi 1.01,2013-01-19 06:07:00,
2013-01-18 22:12:00,30.9,30.4,30.24,North,-999,0.0,0.0,98,0.00,,,-99.99,FreeWX-Wi 1.01,2013-01-19 06:12:00,
2013-01-18 22:17:00,30.7,30.2,30.24,North,-999,0.0,0.0,98,0.00,,,-99.99,FreeWX-Wi 1.01,2013-01-19 06:17:00,
2013-01-18 22:22:00,30.9,30.4,30.24,North,-999,0.0,0.0,98,0.00,,,-99.99,FreeWX-Wi 1.01,2013-01-19 06:22:00,
2013-01-18 22:27:00,30.7,30.2,30.24,North,-999,0.0,0.0,98,0.00,,,-99.99,FreeWX-Wi 1.01,2013-01-19 06:27:00,
2013-01-18 22:32:00,30.6,30.0,30.24,North,-999,0.0,0.0,98,0.00,,,-99.99,FreeWX-Wi 1.01,2013-01-19 06:32:00,
2013-01-18 22:37:00,30.4,29.8,30.24,North,-999,0.0,0.0,98,0.00,,,-99.99,FreeWX-Wi 1.01,2013-01-19 06:37:00,
2013-01-18 22:42:00,30.4,29.8,30.24,North,-999,0.0,0.0,98,0.00,,,-99.99,FreeWX-Wi 1.01,2013-01-19 06:42:00,
2013-01-18 22:47:00,30.6,30.0,30.24,North,-999,0.0,0.0,98,0.00,,,-99.99,FreeWX-Wi 1.01,2013-01-19 06:47:00,
2013-01-18 22:52:00,30.4,29.8,30.24,North,-999,0.0,0.0,98,0.00,,,-99.99,FreeWX-Wi 1.01,2013-01-19 06:52:00,
2013-01-18 22:57:00,30.2,29.7,30.21,North,-999,0.0,0.0,98,0.00,,,-99.99,FreeWX-Wi 1.01,2013-01-19 06:57:00,
2013-01-18 23:02:00,30.4,29.8,30.21,North,-999,0.0,0.0,98,0.00,,,-99.99,FreeWX-Wi 1.01,2013-01-19 07:02:00,
2013-01-18 23:07:00,30.4,29.8,30.21,North,-999,0.0,0.0,98,0.00,,,-99.99,FreeWX-Wi 1.01,2013-01-19 07:07:00,
2013-01-18 23:12:00,30.4,29.8,30.24,North,-999,0.0,0.0,98,0.00,,,-99.99,FreeWX-Wi 1.01,2013-01-19 07:12:00,
2013-01-18 23:17:00,30.2,29.7,30.24,North,-999,0.0,0.0,98,0.00,,,-99.99,FreeWX-Wi 1.01,2013-01-19 07:17:00,
2013-01-18 23:22:00,30.2,29.7,30.24,North,-999,0.0,0.0,98,0.00,,,-99.99,FreeWX-Wi 1.01,2013-01-19 07:22:00,
2013-01-18 23:27:00,30.2,29.7,30.24,North,-999,0.0,0.0,98,0.00,,,-99.99,FreeWX-Wi 1.01,2013-01-19 07:27:00,
2013-01-18 23:33:00,30.4,29.8,30.24,North,-999,0.0,0.0,98,0.00,,,-99.99,FreeWX-Wi 1.01,2013-01-19 07:33:00,
2013-01-18 23:38:00,30.2,29.7,30.24,North,-999,0.0,0.0,98,0.00,,,-99.99,FreeWX-Wi 1.01,2013-01-19 07:38:00,
2013-01-18 23:43:00,30.2,29.7,30.24,North,-999,0.0,0.0,98,0.00,,,-99.99,FreeWX-Wi 1.01,2013-01-19 07:43:00,
2013-01-18 23:48:00,30.2,29.7,30.24,North,-999,0.0,0.0,98,0.00,,,-99.99,FreeWX-Wi 1.01,2013-01-19 07:48:00,
2013-01-18 23:53:00,30.0,29.5,30.24,North,-999,0.0,0.0,98,0.00,,,-99.99,FreeWX-Wi 1.01,2013-01-19 07:53:00,
2013-01-18 23:58:00,29.8,29.3,30.24,North,-999,0.0,0.0,98,0.00,,,-99.99,FreeWX-Wi 1.01,2013-01-19 07:58:00,